sensor_id;sensor_type;location;lat;lon;timestamp;P1;durP1;ratioP1;P2;durP2;ratioP2
16975;SDS011;8604;48.148;-1.786;2023-08-07T00:00:36;8.20;;;2.70;;
16975;SDS011;8604;48.148;-1.786;2023-08-07T00:03:06;6.77;;;2.43;;
16975;SDS011;8604;48.148;-1.786;2023-08-07T00:05:34;8.80;;;2.70;;
16975;SDS011;8604;48.148;-1.786;2023-08-07T00:08:03;10.53;;;3.03;;
16975;SDS011;8604;48.148;-1.786;2023-08-07T00:10:31;12.07;;;2.80;;
16975;SDS011;8604;48.148;-1.786;2023-08-07T00:12:59;11.00;;;2.87;;
16975;SDS011;8604;48.148;-1.786;2023-08-07T00:15:28;10.37;;;2.80;;
16975;SDS011;8604;48.148;-1.786;2023-08-07T00:17:56;12.07;;;2.93;;
16975;SDS011;8604;48.148;-1.786;2023-08-07T00:20:26;10.73;;;2.97;;
16975;SDS011;8604;48.148;-1.786;2023-08-07T00:22:54;9.43;;;3.20;;
16975;SDS011;8604;48.148;-1.786;2023-08-07T00:25:23;7.30;;;2.70;;
16975;SDS011;8604;48.148;-1.786;2023-08-07T00:27:54;8.47;;;2.97;;
16975;SDS011;8604;48.148;-1.786;2023-08-07T00:30:24;7.60;;;3.07;;
16975;SDS011;8604;48.148;-1.786;2023-08-07T00:32:53;6.13;;;2.57;;
16975;SDS011;8604;48.148;-1.786;2023-08-07T00:35:21;6.37;;;2.97;;
16975;SDS011;8604;48.148;-1.786;2023-08-07T00:37:51;10.20;;;2.80;;
16975;SDS011;8604;48.148;-1.786;2023-08-07T00:40:20;7.10;;;3.07;;
16975;SDS011;8604;48.148;-1.786;2023-08-07T00:42:51;13.17;;;3.30;;
16975;SDS011;8604;48.148;-1.786;2023-08-07T00:45:20;6.43;;;2.80;;
16975;SDS011;8604;48.148;-1.786;2023-08-07T00:47:49;7.63;;;2.67;;
16975;SDS011;8604;48.148;-1.786;2023-08-07T00:50:17;7.70;;;2.83;;
16975;SDS011;8604;48.148;-1.786;2023-08-07T00:52:48;9.13;;;2.97;;
16975;SDS011;8604;48.148;-1.786;2023-08-07T00:55:18;11.10;;;4.00;;
16975;SDS011;8604;48.148;-1.786;2023-08-07T00:57:46;8.03;;;2.70;;
16975;SDS011;8604;48.148;-1.786;2023-08-07T01:00:14;9.03;;;2.80;;
16975;SDS011;8604;48.148;-1.786;2023-08-07T01:02:44;7.97;;;2.90;;
16975;SDS011;8604;48.148;-1.786;2023-08-07T01:05:14;7.83;;;3.10;;
16975;SDS011;8604;48.148;-1.786;2023-08-07T01:07:43;10.67;;;3.50;;
16975;SDS011;8604;48.148;-1.786;2023-08-07T01:10:11;8.10;;;3.07;;
16975;SDS011;8604;48.148;-1.786;2023-08-07T01:12:42;6.80;;;2.80;;
16975;SDS011;8604;48.148;-1.786;2023-08-07T01:15:25;5.43;;;2.67;;
16975;SDS011;8604;48.148;-1.786;2023-08-07T01:17:59;9.70;;;3.23;;
16975;SDS011;8604;48.148;-1.786;2023-08-07T01:20:30;8.10;;;3.23;;
16975;SDS011;8604;48.148;-1.786;2023-08-07T01:23:01;10.60;;;3.40;;
16975;SDS011;8604;48.148;-1.786;2023-08-07T01:25:29;9.83;;;3.37;;
16975;SDS011;8604;48.148;-1.786;2023-08-07T01:28:00;13.50;;;3.23;;
16975;SDS011;8604;48.148;-1.786;2023-08-07T01:30:33;7.87;;;3.23;;
16975;SDS011;8604;48.148;-1.786;2023-08-07T01:33:09;12.67;;;3.97;;
16975;SDS011;8604;48.148;-1.786;2023-08-07T01:35:41;13.87;;;3.63;;
16975;SDS011;8604;48.148;-1.786;2023-08-07T01:38:13;10.20;;;2.90;;
16975;SDS011;8604;48.148;-1.786;2023-08-07T01:40:42;9.07;;;3.13;;
16975;SDS011;8604;48.148;-1.786;2023-08-07T01:43:11;9.83;;;3.30;;
16975;SDS011;8604;48.148;-1.786;2023-08-07T01:45:40;8.80;;;2.97;;
16975;SDS011;8604;48.148;-1.786;2023-08-07T01:48:08;13.53;;;3.37;;
16975;SDS011;8604;48.148;-1.786;2023-08-07T01:50:37;10.37;;;3.10;;
16975;SDS011;8604;48.148;-1.786;2023-08-07T01:53:07;9.77;;;3.00;;
16975;SDS011;8604;48.148;-1.786;2023-08-07T01:55:37;14.63;;;3.30;;
16975;SDS011;8604;48.148;-1.786;2023-08-07T01:58:05;7.30;;;2.90;;
16975;SDS011;8604;48.148;-1.786;2023-08-07T02:00:33;9.90;;;3.43;;
16975;SDS011;8604;48.148;-1.786;2023-08-07T02:03:02;12.40;;;3.67;;
16975;SDS011;8604;48.148;-1.786;2023-08-07T02:05:30;10.73;;;3.20;;
16975;SDS011;8604;48.148;-1.786;2023-08-07T02:07:58;14.20;;;3.37;;
16975;SDS011;8604;48.148;-1.786;2023-08-07T02:10:27;13.57;;;3.40;;
16975;SDS011;8604;48.148;-1.786;2023-08-07T02:12:58;10.37;;;3.27;;
16975;SDS011;8604;48.148;-1.786;2023-08-07T02:15:26;10.90;;;3.13;;
16975;SDS011;8604;48.148;-1.786;2023-08-07T02:17:55;11.37;;;3.20;;
16975;SDS011;8604;48.148;-1.786;2023-08-07T02:20:24;6.93;;;3.10;;
16975;SDS011;8604;48.148;-1.786;2023-08-07T02:22:52;9.30;;;3.00;;
16975;SDS011;8604;48.148;-1.786;2023-08-07T02:25:20;8.27;;;3.20;;
16975;SDS011;8604;48.148;-1.786;2023-08-07T02:27:49;9.70;;;3.10;;
16975;SDS011;8604;48.148;-1.786;2023-08-07T02:30:18;9.40;;;3.40;;
16975;SDS011;8604;48.148;-1.786;2023-08-07T02:32:49;8.50;;;3.30;;
16975;SDS011;8604;48.148;-1.786;2023-08-07T02:35:17;7.10;;;3.20;;
16975;SDS011;8604;48.148;-1.786;2023-08-07T02:37:45;6.17;;;3.10;;
16975;SDS011;8604;48.148;-1.786;2023-08-07T02:40:14;6.90;;;3.10;;
16975;SDS011;8604;48.148;-1.786;2023-08-07T02:42:44;9.17;;;3.57;;
16975;SDS011;8604;48.148;-1.786;2023-08-07T02:45:13;9.67;;;3.30;;
16975;SDS011;8604;48.148;-1.786;2023-08-07T02:47:42;8.27;;;3.37;;
16975;SDS011;8604;48.148;-1.786;2023-08-07T02:50:11;11.20;;;3.40;;
16975;SDS011;8604;48.148;-1.786;2023-08-07T02:52:39;8.57;;;3.00;;
16975;SDS011;8604;48.148;-1.786;2023-08-07T02:55:10;9.13;;;3.30;;
16975;SDS011;8604;48.148;-1.786;2023-08-07T02:57:38;8.87;;;3.23;;
16975;SDS011;8604;48.148;-1.786;2023-08-07T03:00:07;10.10;;;3.37;;
16975;SDS011;8604;48.148;-1.786;2023-08-07T03:02:36;8.27;;;3.23;;
16975;SDS011;8604;48.148;-1.786;2023-08-07T03:05:06;8.17;;;3.20;;
16975;SDS011;8604;48.148;-1.786;2023-08-07T03:07:35;9.50;;;3.13;;
16975;SDS011;8604;48.148;-1.786;2023-08-07T03:10:04;14.23;;;3.73;;
16975;SDS011;8604;48.148;-1.786;2023-08-07T03:12:33;8.73;;;3.77;;
16975;SDS011;8604;48.148;-1.786;2023-08-07T03:15:02;9.13;;;3.50;;
16975;SDS011;8604;48.148;-1.786;2023-08-07T03:17:31;8.03;;;3.47;;
16975;SDS011;8604;48.148;-1.786;2023-08-07T03:19:59;6.50;;;3.13;;
16975;SDS011;8604;48.148;-1.786;2023-08-07T03:22:29;9.70;;;3.33;;
16975;SDS011;8604;48.148;-1.786;2023-08-07T03:24:58;10.13;;;4.10;;
16975;SDS011;8604;48.148;-1.786;2023-08-07T03:27:26;8.70;;;2.77;;
16975;SDS011;8604;48.148;-1.786;2023-08-07T03:29:56;9.13;;;3.20;;
16975;SDS011;8604;48.148;-1.786;2023-08-07T03:32:28;8.20;;;3.10;;
16975;SDS011;8604;48.148;-1.786;2023-08-07T03:34:56;10.07;;;3.53;;
16975;SDS011;8604;48.148;-1.786;2023-08-07T03:37:26;10.57;;;3.73;;
16975;SDS011;8604;48.148;-1.786;2023-08-07T03:39:55;7.03;;;3.50;;
16975;SDS011;8604;48.148;-1.786;2023-08-07T03:42:24;11.47;;;3.63;;
16975;SDS011;8604;48.148;-1.786;2023-08-07T03:44:54;8.30;;;3.70;;
16975;SDS011;8604;48.148;-1.786;2023-08-07T03:47:22;8.80;;;3.70;;
16975;SDS011;8604;48.148;-1.786;2023-08-07T03:49:50;12.30;;;3.60;;
16975;SDS011;8604;48.148;-1.786;2023-08-07T03:52:20;9.87;;;3.80;;
16975;SDS011;8604;48.148;-1.786;2023-08-07T03:54:48;12.47;;;3.70;;
16975;SDS011;8604;48.148;-1.786;2023-08-07T03:57:18;8.43;;;3.30;;
16975;SDS011;8604;48.148;-1.786;2023-08-07T03:59:48;17.73;;;4.40;;
16975;SDS011;8604;48.148;-1.786;2023-08-07T04:02:16;12.77;;;3.33;;
16975;SDS011;8604;48.148;-1.786;2023-08-07T04:04:45;12.33;;;3.40;;
16975;SDS011;8604;48.148;-1.786;2023-08-07T04:07:13;10.27;;;3.80;;
16975;SDS011;8604;48.148;-1.786;2023-08-07T04:09:41;13.70;;;3.90;;
16975;SDS011;8604;48.148;-1.786;2023-08-07T04:12:09;9.83;;;3.77;;
16975;SDS011;8604;48.148;-1.786;2023-08-07T04:14:39;8.03;;;3.53;;
16975;SDS011;8604;48.148;-1.786;2023-08-07T04:17:07;8.97;;;3.60;;
16975;SDS011;8604;48.148;-1.786;2023-08-07T04:19:37;12.23;;;4.00;;
16975;SDS011;8604;48.148;-1.786;2023-08-07T04:22:05;16.63;;;4.43;;
16975;SDS011;8604;48.148;-1.786;2023-08-07T04:24:33;22.73;;;4.30;;
16975;SDS011;8604;48.148;-1.786;2023-08-07T04:27:02;10.13;;;3.77;;
16975;SDS011;8604;48.148;-1.786;2023-08-07T04:29:30;11.30;;;3.77;;
16975;SDS011;8604;48.148;-1.786;2023-08-07T04:32:00;15.20;;;3.60;;
16975;SDS011;8604;48.148;-1.786;2023-08-07T04:34:29;9.30;;;3.60;;
16975;SDS011;8604;48.148;-1.786;2023-08-07T04:36:57;8.10;;;3.90;;
16975;SDS011;8604;48.148;-1.786;2023-08-07T04:39:25;9.33;;;3.90;;
16975;SDS011;8604;48.148;-1.786;2023-08-07T04:41:54;12.73;;;4.03;;
16975;SDS011;8604;48.148;-1.786;2023-08-07T04:44:22;10.70;;;4.00;;
16975;SDS011;8604;48.148;-1.786;2023-08-07T04:46:50;10.97;;;3.60;;
16975;SDS011;8604;48.148;-1.786;2023-08-07T04:49:20;10.57;;;4.20;;
16975;SDS011;8604;48.148;-1.786;2023-08-07T04:51:49;13.23;;;4.30;;
16975;SDS011;8604;48.148;-1.786;2023-08-07T04:54:17;8.53;;;3.77;;
16975;SDS011;8604;48.148;-1.786;2023-08-07T04:56:45;17.17;;;4.57;;
16975;SDS011;8604;48.148;-1.786;2023-08-07T04:59:14;13.33;;;3.90;;
16975;SDS011;8604;48.148;-1.786;2023-08-07T05:01:42;12.87;;;4.50;;
16975;SDS011;8604;48.148;-1.786;2023-08-07T05:04:10;20.03;;;5.37;;
16975;SDS011;8604;48.148;-1.786;2023-08-07T05:06:40;15.07;;;5.20;;
16975;SDS011;8604;48.148;-1.786;2023-08-07T05:09:08;14.23;;;5.50;;
16975;SDS011;8604;48.148;-1.786;2023-08-07T05:11:36;9.33;;;4.50;;
16975;SDS011;8604;48.148;-1.786;2023-08-07T05:14:05;17.57;;;5.30;;
16975;SDS011;8604;48.148;-1.786;2023-08-07T05:16:33;16.23;;;5.50;;
16975;SDS011;8604;48.148;-1.786;2023-08-07T05:19:01;23.87;;;6.00;;
16975;SDS011;8604;48.148;-1.786;2023-08-07T05:21:30;20.60;;;6.07;;
16975;SDS011;8604;48.148;-1.786;2023-08-07T05:23:59;13.03;;;4.97;;
16975;SDS011;8604;48.148;-1.786;2023-08-07T05:26:28;15.10;;;5.00;;
16975;SDS011;8604;48.148;-1.786;2023-08-07T05:28:56;12.70;;;5.73;;
16975;SDS011;8604;48.148;-1.786;2023-08-07T05:31:25;18.67;;;5.93;;
16975;SDS011;8604;48.148;-1.786;2023-08-07T05:33:55;17.27;;;6.07;;
16975;SDS011;8604;48.148;-1.786;2023-08-07T05:36:23;13.27;;;5.97;;
16975;SDS011;8604;48.148;-1.786;2023-08-07T05:38:51;11.07;;;5.47;;
16975;SDS011;8604;48.148;-1.786;2023-08-07T05:41:21;11.97;;;5.50;;
16975;SDS011;8604;48.148;-1.786;2023-08-07T05:43:49;11.87;;;5.47;;
16975;SDS011;8604;48.148;-1.786;2023-08-07T05:46:18;10.13;;;5.50;;
16975;SDS011;8604;48.148;-1.786;2023-08-07T05:48:46;10.10;;;4.90;;
16975;SDS011;8604;48.148;-1.786;2023-08-07T05:51:15;7.63;;;5.20;;
16975;SDS011;8604;48.148;-1.786;2023-08-07T05:53:43;16.37;;;5.50;;
16975;SDS011;8604;48.148;-1.786;2023-08-07T05:56:11;9.03;;;4.87;;
16975;SDS011;8604;48.148;-1.786;2023-08-07T05:58:41;15.40;;;4.90;;
16975;SDS011;8604;48.148;-1.786;2023-08-07T06:01:09;7.83;;;4.77;;
16975;SDS011;8604;48.148;-1.786;2023-08-07T06:03:38;15.43;;;5.20;;
16975;SDS011;8604;48.148;-1.786;2023-08-07T06:06:06;7.33;;;4.63;;
16975;SDS011;8604;48.148;-1.786;2023-08-07T06:08:34;8.27;;;5.20;;
16975;SDS011;8604;48.148;-1.786;2023-08-07T06:11:02;7.53;;;4.13;;
16975;SDS011;8604;48.148;-1.786;2023-08-07T06:13:32;7.87;;;4.10;;
16975;SDS011;8604;48.148;-1.786;2023-08-07T06:16:03;8.30;;;4.53;;
16975;SDS011;8604;48.148;-1.786;2023-08-07T06:18:32;7.23;;;4.00;;
16975;SDS011;8604;48.148;-1.786;2023-08-07T06:21:02;7.37;;;4.27;;
16975;SDS011;8604;48.148;-1.786;2023-08-07T06:23:33;7.57;;;4.40;;
16975;SDS011;8604;48.148;-1.786;2023-08-07T06:26:01;10.37;;;4.60;;
16975;SDS011;8604;48.148;-1.786;2023-08-07T06:28:31;6.67;;;3.90;;
16975;SDS011;8604;48.148;-1.786;2023-08-07T06:31:01;10.70;;;4.00;;
16975;SDS011;8604;48.148;-1.786;2023-08-07T06:33:31;8.33;;;3.53;;
16975;SDS011;8604;48.148;-1.786;2023-08-07T06:35:59;6.73;;;3.80;;
16975;SDS011;8604;48.148;-1.786;2023-08-07T06:38:28;8.33;;;3.90;;
16975;SDS011;8604;48.148;-1.786;2023-08-07T06:40:57;7.03;;;4.10;;
16975;SDS011;8604;48.148;-1.786;2023-08-07T06:43:25;8.93;;;4.63;;
16975;SDS011;8604;48.148;-1.786;2023-08-07T06:45:54;8.00;;;4.23;;
16975;SDS011;8604;48.148;-1.786;2023-08-07T06:48:23;9.30;;;4.10;;
16975;SDS011;8604;48.148;-1.786;2023-08-07T06:50:53;6.77;;;3.70;;
16975;SDS011;8604;48.148;-1.786;2023-08-07T06:53:22;9.63;;;4.00;;
16975;SDS011;8604;48.148;-1.786;2023-08-07T06:55:52;8.70;;;4.30;;
16975;SDS011;8604;48.148;-1.786;2023-08-07T06:58:23;11.07;;;4.20;;
16975;SDS011;8604;48.148;-1.786;2023-08-07T07:00:52;13.60;;;4.13;;
16975;SDS011;8604;48.148;-1.786;2023-08-07T07:03:20;9.83;;;3.90;;
16975;SDS011;8604;48.148;-1.786;2023-08-07T07:05:49;9.73;;;3.60;;
16975;SDS011;8604;48.148;-1.786;2023-08-07T07:08:18;6.67;;;2.80;;
16975;SDS011;8604;48.148;-1.786;2023-08-07T07:10:47;8.73;;;2.90;;
16975;SDS011;8604;48.148;-1.786;2023-08-07T07:13:15;9.10;;;3.30;;
16975;SDS011;8604;48.148;-1.786;2023-08-07T07:15:43;9.27;;;3.30;;
16975;SDS011;8604;48.148;-1.786;2023-08-07T07:18:11;11.07;;;3.10;;
16975;SDS011;8604;48.148;-1.786;2023-08-07T07:20:40;8.10;;;3.20;;
16975;SDS011;8604;48.148;-1.786;2023-08-07T07:23:08;12.57;;;3.23;;
16975;SDS011;8604;48.148;-1.786;2023-08-07T07:25:38;12.17;;;3.40;;
16975;SDS011;8604;48.148;-1.786;2023-08-07T07:28:06;7.60;;;2.50;;
16975;SDS011;8604;48.148;-1.786;2023-08-07T07:30:34;8.40;;;3.30;;
16975;SDS011;8604;48.148;-1.786;2023-08-07T07:33:03;10.90;;;3.07;;
16975;SDS011;8604;48.148;-1.786;2023-08-07T07:35:31;7.57;;;2.80;;
16975;SDS011;8604;48.148;-1.786;2023-08-07T07:38:01;7.20;;;2.50;;
16975;SDS011;8604;48.148;-1.786;2023-08-07T07:40:30;8.50;;;2.50;;
16975;SDS011;8604;48.148;-1.786;2023-08-07T07:43:00;7.70;;;2.50;;
16975;SDS011;8604;48.148;-1.786;2023-08-07T07:45:28;8.87;;;2.63;;
16975;SDS011;8604;48.148;-1.786;2023-08-07T07:47:57;7.97;;;2.80;;
16975;SDS011;8604;48.148;-1.786;2023-08-07T07:50:25;6.03;;;2.67;;
16975;SDS011;8604;48.148;-1.786;2023-08-07T07:52:54;7.53;;;2.47;;
16975;SDS011;8604;48.148;-1.786;2023-08-07T07:55:22;7.40;;;2.30;;
16975;SDS011;8604;48.148;-1.786;2023-08-07T07:57:51;6.73;;;2.47;;
16975;SDS011;8604;48.148;-1.786;2023-08-07T08:00:20;8.73;;;2.50;;
16975;SDS011;8604;48.148;-1.786;2023-08-07T08:02:53;8.73;;;2.50;;
16975;SDS011;8604;48.148;-1.786;2023-08-07T08:05:21;4.93;;;2.13;;
16975;SDS011;8604;48.148;-1.786;2023-08-07T08:07:50;7.97;;;2.50;;
16975;SDS011;8604;48.148;-1.786;2023-08-07T08:10:18;7.15;;;2.25;;
16975;SDS011;8604;48.148;-1.786;2023-08-07T08:12:46;7.38;;;2.30;;
16975;SDS011;8604;48.148;-1.786;2023-08-07T08:15:15;5.57;;;2.20;;
16975;SDS011;8604;48.148;-1.786;2023-08-07T08:17:44;7.65;;;2.30;;
16975;SDS011;8604;48.148;-1.786;2023-08-07T08:20:13;7.07;;;2.40;;
16975;SDS011;8604;48.148;-1.786;2023-08-07T08:22:44;6.70;;;2.20;;
16975;SDS011;8604;48.148;-1.786;2023-08-07T08:25:13;8.18;;;2.40;;
16975;SDS011;8604;48.148;-1.786;2023-08-07T08:27:41;7.38;;;2.13;;
16975;SDS011;8604;48.148;-1.786;2023-08-07T08:30:09;16.45;;;2.85;;
16975;SDS011;8604;48.148;-1.786;2023-08-07T08:32:38;6.80;;;2.10;;
16975;SDS011;8604;48.148;-1.786;2023-08-07T08:35:08;5.57;;;1.65;;
16975;SDS011;8604;48.148;-1.786;2023-08-07T08:37:38;6.53;;;2.10;;
16975;SDS011;8604;48.148;-1.786;2023-08-07T08:40:07;5.30;;;2.15;;
16975;SDS011;8604;48.148;-1.786;2023-08-07T08:42:38;7.78;;;2.10;;
16975;SDS011;8604;48.148;-1.786;2023-08-07T08:45:08;8.35;;;2.35;;
16975;SDS011;8604;48.148;-1.786;2023-08-07T08:47:38;6.63;;;2.00;;
16975;SDS011;8604;48.148;-1.786;2023-08-07T08:50:09;7.20;;;1.90;;
16975;SDS011;8604;48.148;-1.786;2023-08-07T08:52:41;7.43;;;2.03;;
16975;SDS011;8604;48.148;-1.786;2023-08-07T08:55:10;6.72;;;2.10;;
16975;SDS011;8604;48.148;-1.786;2023-08-07T08:57:39;4.68;;;1.90;;
16975;SDS011;8604;48.148;-1.786;2023-08-07T09:00:09;5.57;;;1.90;;
16975;SDS011;8604;48.148;-1.786;2023-08-07T09:02:44;7.28;;;2.13;;
16975;SDS011;8604;48.148;-1.786;2023-08-07T09:05:15;5.78;;;1.88;;
16975;SDS011;8604;48.148;-1.786;2023-08-07T09:07:44;4.32;;;1.83;;
16975;SDS011;8604;48.148;-1.786;2023-08-07T09:10:13;5.03;;;1.80;;
16975;SDS011;8604;48.148;-1.786;2023-08-07T09:12:45;6.47;;;2.10;;
16975;SDS011;8604;48.148;-1.786;2023-08-07T09:15:31;5.18;;;1.75;;
16975;SDS011;8604;48.148;-1.786;2023-08-07T09:18:00;6.25;;;1.75;;
16975;SDS011;8604;48.148;-1.786;2023-08-07T09:20:32;4.55;;;1.60;;
16975;SDS011;8604;48.148;-1.786;2023-08-07T09:23:01;6.97;;;2.15;;
16975;SDS011;8604;48.148;-1.786;2023-08-07T09:25:29;5.93;;;1.80;;
16975;SDS011;8604;48.148;-1.786;2023-08-07T09:28:01;5.03;;;1.90;;
16975;SDS011;8604;48.148;-1.786;2023-08-07T09:30:31;5.85;;;1.88;;
16975;SDS011;8604;48.148;-1.786;2023-08-07T09:33:01;5.03;;;1.90;;
16975;SDS011;8604;48.148;-1.786;2023-08-07T09:35:32;5.28;;;1.60;;
16975;SDS011;8604;48.148;-1.786;2023-08-07T09:38:01;4.28;;;1.60;;
16975;SDS011;8604;48.148;-1.786;2023-08-07T09:40:29;5.10;;;1.70;;
16975;SDS011;8604;48.148;-1.786;2023-08-07T09:43:00;6.47;;;1.73;;
16975;SDS011;8604;48.148;-1.786;2023-08-07T09:45:29;4.53;;;1.70;;
16975;SDS011;8604;48.148;-1.786;2023-08-07T09:47:59;5.57;;;1.95;;
16975;SDS011;8604;48.148;-1.786;2023-08-07T09:50:27;5.07;;;1.95;;
16975;SDS011;8604;48.148;-1.786;2023-08-07T09:52:58;5.40;;;1.73;;
16975;SDS011;8604;48.148;-1.786;2023-08-07T09:55:26;4.93;;;2.05;;
16975;SDS011;8604;48.148;-1.786;2023-08-07T09:57:55;4.57;;;1.80;;
16975;SDS011;8604;48.148;-1.786;2023-08-07T10:00:23;5.60;;;1.80;;
16975;SDS011;8604;48.148;-1.786;2023-08-07T10:02:53;6.57;;;2.33;;
16975;SDS011;8604;48.148;-1.786;2023-08-07T10:05:22;4.88;;;1.65;;
16975;SDS011;8604;48.148;-1.786;2023-08-07T10:07:50;4.35;;;1.52;;
16975;SDS011;8604;48.148;-1.786;2023-08-07T10:10:22;4.43;;;1.83;;
16975;SDS011;8604;48.148;-1.786;2023-08-07T10:12:52;7.65;;;4.22;;
16975;SDS011;8604;48.148;-1.786;2023-08-07T10:15:22;7.68;;;4.65;;
16975;SDS011;8604;48.148;-1.786;2023-08-07T10:17:51;3.95;;;1.83;;
16975;SDS011;8604;48.148;-1.786;2023-08-07T10:20:20;4.35;;;2.03;;
16975;SDS011;8604;48.148;-1.786;2023-08-07T10:22:50;3.88;;;1.70;;
16975;SDS011;8604;48.148;-1.786;2023-08-07T10:25:20;3.67;;;1.60;;
16975;SDS011;8604;48.148;-1.786;2023-08-07T10:27:52;4.97;;;1.50;;
16975;SDS011;8604;48.148;-1.786;2023-08-07T10:30:23;4.65;;;1.77;;
16975;SDS011;8604;48.148;-1.786;2023-08-07T10:32:55;3.85;;;1.40;;
16975;SDS011;8604;48.148;-1.786;2023-08-07T10:35:26;4.22;;;1.40;;
16975;SDS011;8604;48.148;-1.786;2023-08-07T10:38:04;2.90;;;1.50;;
16975;SDS011;8604;48.148;-1.786;2023-08-07T10:40:36;4.95;;;1.73;;
16975;SDS011;8604;48.148;-1.786;2023-08-07T10:43:28;4.18;;;1.60;;
16975;SDS011;8604;48.148;-1.786;2023-08-07T10:46:04;4.60;;;1.77;;
16975;SDS011;8604;48.148;-1.786;2023-08-07T10:48:39;4.50;;;1.60;;
16975;SDS011;8604;48.148;-1.786;2023-08-07T10:51:11;4.20;;;1.35;;
16975;SDS011;8604;48.148;-1.786;2023-08-07T10:53:41;4.13;;;1.52;;
16975;SDS011;8604;48.148;-1.786;2023-08-07T10:56:15;3.95;;;1.50;;
16975;SDS011;8604;48.148;-1.786;2023-08-07T10:58:48;3.70;;;1.60;;
16975;SDS011;8604;48.148;-1.786;2023-08-07T11:01:19;6.05;;;1.60;;
16975;SDS011;8604;48.148;-1.786;2023-08-07T11:03:49;4.35;;;1.70;;
16975;SDS011;8604;48.148;-1.786;2023-08-07T11:06:21;3.80;;;1.50;;
16975;SDS011;8604;48.148;-1.786;2023-08-07T11:08:50;3.92;;;1.20;;
16975;SDS011;8604;48.148;-1.786;2023-08-07T11:11:20;5.28;;;1.48;;
16975;SDS011;8604;48.148;-1.786;2023-08-07T11:13:48;4.07;;;1.55;;
16975;SDS011;8604;48.148;-1.786;2023-08-07T11:16:17;4.53;;;1.52;;
16975;SDS011;8604;48.148;-1.786;2023-08-07T11:18:48;4.55;;;1.50;;
16975;SDS011;8604;48.148;-1.786;2023-08-07T11:21:17;6.10;;;1.67;;
16975;SDS011;8604;48.148;-1.786;2023-08-07T11:23:46;2.83;;;1.30;;
16975;SDS011;8604;48.148;-1.786;2023-08-07T11:26:16;4.15;;;1.38;;
16975;SDS011;8604;48.148;-1.786;2023-08-07T11:28:49;4.93;;;1.52;;
16975;SDS011;8604;48.148;-1.786;2023-08-07T11:31:18;3.70;;;1.50;;
16975;SDS011;8604;48.148;-1.786;2023-08-07T11:33:46;4.05;;;1.40;;
16975;SDS011;8604;48.148;-1.786;2023-08-07T11:36:17;5.97;;;1.60;;
16975;SDS011;8604;48.148;-1.786;2023-08-07T11:38:46;5.22;;;1.77;;
16975;SDS011;8604;48.148;-1.786;2023-08-07T11:41:15;3.08;;;1.52;;
16975;SDS011;8604;48.148;-1.786;2023-08-07T11:43:45;5.03;;;1.60;;
16975;SDS011;8604;48.148;-1.786;2023-08-07T11:46:15;4.28;;;1.48;;
16975;SDS011;8604;48.148;-1.786;2023-08-07T11:48:44;4.38;;;1.27;;
16975;SDS011;8604;48.148;-1.786;2023-08-07T11:51:12;3.60;;;1.50;;
16975;SDS011;8604;48.148;-1.786;2023-08-07T11:53:41;3.85;;;1.60;;
16975;SDS011;8604;48.148;-1.786;2023-08-07T11:56:10;5.25;;;1.60;;
16975;SDS011;8604;48.148;-1.786;2023-08-07T11:58:42;2.03;;;1.23;;
16975;SDS011;8604;48.148;-1.786;2023-08-07T12:01:13;5.28;;;1.63;;
16975;SDS011;8604;48.148;-1.786;2023-08-07T12:03:52;3.50;;;1.30;;
16975;SDS011;8604;48.148;-1.786;2023-08-07T12:06:22;5.70;;;1.50;;
16975;SDS011;8604;48.148;-1.786;2023-08-07T12:08:53;6.63;;;1.70;;
16975;SDS011;8604;48.148;-1.786;2023-08-07T12:11:24;4.35;;;1.70;;
16975;SDS011;8604;48.148;-1.786;2023-08-07T12:13:52;4.18;;;1.77;;
16975;SDS011;8604;48.148;-1.786;2023-08-07T12:16:22;5.30;;;1.52;;
16975;SDS011;8604;48.148;-1.786;2023-08-07T12:18:51;4.75;;;1.60;;
16975;SDS011;8604;48.148;-1.786;2023-08-07T12:21:20;4.95;;;1.80;;
16975;SDS011;8604;48.148;-1.786;2023-08-07T12:23:51;3.75;;;1.40;;
16975;SDS011;8604;48.148;-1.786;2023-08-07T12:26:22;3.08;;;1.40;;
16975;SDS011;8604;48.148;-1.786;2023-08-07T12:28:50;5.70;;;1.58;;
16975;SDS011;8604;48.148;-1.786;2023-08-07T12:31:19;7.57;;;1.70;;
16975;SDS011;8604;48.148;-1.786;2023-08-07T12:33:49;3.33;;;1.55;;
16975;SDS011;8604;48.148;-1.786;2023-08-07T12:36:19;2.92;;;1.50;;
16975;SDS011;8604;48.148;-1.786;2023-08-07T12:38:47;3.53;;;1.50;;
16975;SDS011;8604;48.148;-1.786;2023-08-07T12:41:15;3.80;;;1.50;;
16975;SDS011;8604;48.148;-1.786;2023-08-07T12:43:46;3.63;;;1.40;;
16975;SDS011;8604;48.148;-1.786;2023-08-07T12:46:15;4.82;;;1.63;;
16975;SDS011;8604;48.148;-1.786;2023-08-07T12:48:46;4.38;;;1.50;;
16975;SDS011;8604;48.148;-1.786;2023-08-07T12:51:16;5.22;;;1.80;;
16975;SDS011;8604;48.148;-1.786;2023-08-07T12:53:44;4.55;;;1.40;;
16975;SDS011;8604;48.148;-1.786;2023-08-07T12:56:14;3.33;;;1.42;;
16975;SDS011;8604;48.148;-1.786;2023-08-07T12:58:42;3.13;;;1.40;;
16975;SDS011;8604;48.148;-1.786;2023-08-07T13:01:12;4.85;;;1.42;;
16975;SDS011;8604;48.148;-1.786;2023-08-07T13:03:40;4.88;;;1.40;;
16975;SDS011;8604;48.148;-1.786;2023-08-07T13:06:09;4.90;;;1.60;;
16975;SDS011;8604;48.148;-1.786;2023-08-07T13:08:40;3.70;;;1.55;;
16975;SDS011;8604;48.148;-1.786;2023-08-07T13:11:08;4.78;;;1.45;;
16975;SDS011;8604;48.148;-1.786;2023-08-07T13:13:37;3.45;;;1.60;;
16975;SDS011;8604;48.148;-1.786;2023-08-07T13:16:06;3.90;;;1.40;;
16975;SDS011;8604;48.148;-1.786;2023-08-07T13:18:34;5.28;;;1.50;;
16975;SDS011;8604;48.148;-1.786;2023-08-07T13:21:03;5.38;;;1.55;;
16975;SDS011;8604;48.148;-1.786;2023-08-07T13:23:31;5.03;;;1.50;;
16975;SDS011;8604;48.148;-1.786;2023-08-07T13:26:01;2.95;;;1.40;;
16975;SDS011;8604;48.148;-1.786;2023-08-07T13:28:29;3.87;;;1.70;;
16975;SDS011;8604;48.148;-1.786;2023-08-07T13:30:57;4.82;;;1.40;;
16975;SDS011;8604;48.148;-1.786;2023-08-07T13:33:26;4.88;;;1.48;;
16975;SDS011;8604;48.148;-1.786;2023-08-07T13:35:54;4.45;;;1.30;;
16975;SDS011;8604;48.148;-1.786;2023-08-07T13:38:22;4.75;;;1.63;;
16975;SDS011;8604;48.148;-1.786;2023-08-07T13:40:51;5.53;;;1.80;;
16975;SDS011;8604;48.148;-1.786;2023-08-07T13:43:21;3.43;;;1.43;;
16975;SDS011;8604;48.148;-1.786;2023-08-07T13:45:49;3.10;;;1.40;;
16975;SDS011;8604;48.148;-1.786;2023-08-07T13:48:18;7.00;;;1.90;;
16975;SDS011;8604;48.148;-1.786;2023-08-07T13:50:46;4.75;;;1.60;;
16975;SDS011;8604;48.148;-1.786;2023-08-07T13:53:15;2.93;;;1.33;;
16975;SDS011;8604;48.148;-1.786;2023-08-07T13:55:43;2.33;;;1.10;;
16975;SDS011;8604;48.148;-1.786;2023-08-07T13:58:11;9.70;;;1.85;;
16975;SDS011;8604;48.148;-1.786;2023-08-07T14:00:43;3.58;;;1.40;;
16975;SDS011;8604;48.148;-1.786;2023-08-07T14:03:11;4.03;;;1.40;;
16975;SDS011;8604;48.148;-1.786;2023-08-07T14:05:41;2.77;;;1.30;;
16975;SDS011;8604;48.148;-1.786;2023-08-07T14:08:09;4.40;;;1.40;;
16975;SDS011;8604;48.148;-1.786;2023-08-07T14:10:38;2.58;;;1.20;;
16975;SDS011;8604;48.148;-1.786;2023-08-07T14:13:08;6.90;;;1.53;;
16975;SDS011;8604;48.148;-1.786;2023-08-07T14:15:38;4.73;;;1.57;;
16975;SDS011;8604;48.148;-1.786;2023-08-07T14:18:08;2.73;;;1.20;;
16975;SDS011;8604;48.148;-1.786;2023-08-07T14:20:37;3.07;;;1.40;;
16975;SDS011;8604;48.148;-1.786;2023-08-07T14:23:25;3.13;;;1.30;;
16975;SDS011;8604;48.148;-1.786;2023-08-07T14:26:14;2.97;;;1.27;;
16975;SDS011;8604;48.148;-1.786;2023-08-07T14:28:44;7.73;;;1.63;;
16975;SDS011;8604;48.148;-1.786;2023-08-07T14:31:12;3.07;;;1.50;;
16975;SDS011;8604;48.148;-1.786;2023-08-07T14:33:42;4.53;;;1.30;;
16975;SDS011;8604;48.148;-1.786;2023-08-07T14:36:10;4.40;;;1.30;;
16975;SDS011;8604;48.148;-1.786;2023-08-07T14:38:39;4.30;;;1.60;;
16975;SDS011;8604;48.148;-1.786;2023-08-07T14:41:07;8.33;;;1.63;;
16975;SDS011;8604;48.148;-1.786;2023-08-07T14:43:36;2.50;;;1.10;;
16975;SDS011;8604;48.148;-1.786;2023-08-07T14:46:04;4.20;;;1.40;;
16975;SDS011;8604;48.148;-1.786;2023-08-07T14:48:32;6.67;;;1.40;;
16975;SDS011;8604;48.148;-1.786;2023-08-07T14:51:02;3.43;;;1.30;;
16975;SDS011;8604;48.148;-1.786;2023-08-07T14:53:30;6.60;;;1.60;;
16975;SDS011;8604;48.148;-1.786;2023-08-07T14:55:59;5.40;;;1.40;;
16975;SDS011;8604;48.148;-1.786;2023-08-07T14:58:27;5.20;;;1.33;;